Byron, WY

8:32 PM MDT on July 25, 2014 (GMT -0600)
APRSWXNET Lovell WY US (MD3219) Elev 3830 ft | 44.84 °N, 108.39 °W | Change Station

Current weather conditions updated 39 minutes ago

Clear
Clear
85 °F
Feels Like 82 °F
N
6
Wind Variable Wind from NNE
Gusts 13.0 mph

Tomorrow is forecast to be Cooler than today.

Today
High -- | Low -- °F
--% Chance of Precip.
Yesterday
High -- | Low -- °F
Precip. -- in
5:52 AM 8:48 PM
Waning Crescent, 1% visible
Pressure 29.73 in
Visibility 10.0 miles
Clouds Clear
Heat Index 82 °F
Dew Point 32 °F
Humidity 15%
Rainfall 0.00 in
Snow Depth Not available.
UV 0 out of 12
Pollen 6.10 out of 12
Air Quality Not available.
Flu Activity Not available.
METAR KGEY 260153Z AUTO 34015G23KT 10SM CLR 32/M07 A2985 RMK AO2 PK WND 32029/0057 SLP065 T03221072

More Conditions Fewer Conditions

Pressure 29.73 in
Visibility 10.0 miles
Clouds Clear
Heat Index 82 °F
Dew Point 32 °F
Humidity 15%
Rainfall 0.00 in
Snow Depth Not available.
UV 0 out of 12
Pollen 6.10 out of 12
Air Quality Not available.
Flu Activity Not available.
METAR KGEY 260153Z AUTO 34015G23KT 10SM CLR 32/M07 A2985 RMK AO2 PK WND 32029/0057 SLP065 T03221072

More Conditions Fewer Conditions

10-Day Weather Forecast

Almanac

Astronomy

Jul. 25, 2014 Rise Set
Actual Time 5:52 AM MDT 8:48 PM MDT
Civil Twilight 5:17 AM MDT 9:22 PM MDT
Nautical Twilight 4:33 AM MDT 10:06 PM MDT
Astronomical Twilight 3:41 AM MDT 10:57 PM MDT
Moon 4:56 AM MDT (7/25) 7:44 PM MDT (7/25)
Length of Visible Light 16h 04m
Length of Day
14h 55m
Tomorrow will be 2m 8s shorter.
Waning Crescent, 1% of the Moon is Illuminated
Today
Waning Crescent
Jul 26
New
Aug 3
First Quarter
Aug 10
Full
Aug 17
Last Quarter

Today's Extremes

State Highs State Lows

Community

WunderPhotos

Upload Photos

1,737,485 photos uploaded!

Nearby

Snow Depth

Station Depth Elevation
Thumb Divide 0 in 7980 ft
Gunsight Pass 1 in 9820 ft
Gros Ventre Summit 0 in 8750 ft
Kendall R.S. 1 in 7740 ft
Loomis Park 0 in 8240 ft

Earthquake Activity

City Distance Mag. Time & Date
No recent earthquake activity has been reported nearby.
Minimum magnitude displayed is 2.5.

Coastal Water Temperatures

Place Temperature
No Stations Reporting

Nearby Weather Stations

Station Location Temp. Heat Index Dew Point Humidity Wind Precip. Elev Updated Type
APRSWXNET Lovell WY , Lovell, WY 85 °F 82 °F 32 °F 15% NNE  at  6 mph 0.00 in / hr 3830 ft 7:53 PM MDT MADIS
NW Powell, Powell, WY 76.8 °F 77 °F 34 °F 21% North  at  8.0 mph 0.00 in / hr 4410 ft 8:31 PM MDT Rapid Fire
Crestview Estates, Powell, WY 77.7 °F 77 °F 23 °F 13% North  at  13.8 mph 0.00 in / hr 4507 ft 8:31 PM MDT Rapid Fire

Show More Stations Show Fewer Stations